.
WxDataArchive / Data Records for 2014-02-21
2014-02-20 February 2014 2014-02-22

Data Records for Friday, 21 February 2014

Time	Temp	Chill	HIndex	Humid	Dewpt	 Wind 	HiWind	WindDir	Rain 	Barom
-----	----	-----	------	-----	-----	------	------	-------	-----	-----
00:00	37.9	33.3	37.9	79	32.0	6	15	270	0.00	29.523 
00:05	37.8	33.9	37.8	79	31.9	5	11	270	0.00	29.523 
00:10	37.8	33.9	37.8	77	31.2	5	12	270	0.00	29.523 
00:15	37.6	32.9	37.6	76	30.7	6	13	248	0.00	29.510 
00:20	37.6	33.7	37.6	76	30.7	5	11	270	0.00	29.510 
00:25	37.5	34.4	37.5	76	30.6	4	10	248	0.00	29.510 
00:30	37.5	34.4	37.5	76	30.6	4	8	270	0.00	29.509 
00:35	37.3	34.2	37.3	76	30.4	4	10	248	0.00	29.509 
00:40	37.3	34.2	37.3	76	30.4	4	10	248	0.00	29.509 
00:45	37.3	37.3	37.3	77	30.8	3	10	248	0.00	29.508 
00:50	37.2	34.1	37.2	77	30.7	4	13	248	0.00	29.508 
00:55	37.2	34.1	37.2	77	30.7	4	11	248	0.00	29.508 
01:00	37.2	37.2	37.2	77	30.7	2	6	248	0.00	29.526 
01:05	37.2	34.1	37.2	77	30.7	4	11	248	0.00	29.526 
01:10	37.2	34.1	37.2	77	30.7	4	10	248	0.00	29.526 
01:15	37.0	33.9	37.0	76	30.2	4	12	248	0.00	29.527 
01:20	37.0	33.9	37.0	76	30.2	4	13	248	0.00	29.527 
01:25	37.0	33.9	37.0	75	29.8	4	11	248	0.00	29.527 
01:30	37.0	33.9	37.0	75	29.8	4	11	248	0.00	29.528 
01:35	37.0	33.9	37.0	74	29.5	4	13	248	0.00	29.528 
01:40	37.0	33.9	37.0	74	29.5	4	10	248	0.00	29.528 
01:45	37.2	33.2	37.2	74	29.7	5	13	248	0.00	29.527 
01:50	37.2	34.1	37.2	73	29.4	4	11	248	0.00	29.527 
01:55	37.2	33.2	37.2	73	29.4	5	12	248	0.00	29.527 
02:00	37.0	37.0	37.0	73	29.2	3	10	248	0.00	29.522 
02:05	37.0	37.0	37.0	73	29.2	3	10	248	0.00	29.522 
02:10	37.0	33.9	37.0	73	29.2	4	9	248	0.00	29.522 
02:15	37.0	37.0	37.0	73	29.2	3	7	248	0.00	29.535 
02:20	37.0	37.0	37.0	73	29.2	3	7	248	0.00	29.535 
02:25	37.0	33.9	37.0	72	28.8	4	9	248	0.00	29.535 
02:30	37.0	37.0	37.0	72	28.8	3	10	248	0.00	29.542 
02:35	37.0	37.0	37.0	72	28.8	3	9	248	0.00	29.542 
02:40	36.9	36.9	36.9	72	28.7	3	7	248	0.00	29.542 
02:45	36.9	36.9	36.9	72	28.7	3	10	248	0.00	29.543 
02:50	36.9	36.9	36.9	72	28.7	3	6	248	0.00	29.543 
02:55	36.9	36.9	36.9	72	28.7	3	8	248	0.00	29.543 
03:00	36.9	36.9	36.9	72	28.7	3	12	248	0.00	29.544 
03:05	36.9	33.7	36.9	72	28.7	4	9	248	0.00	29.544 
03:10	36.9	36.9	36.9	71	28.4	3	9	248	0.00	29.544 
03:15	36.9	36.9	36.9	72	28.7	3	5	248	0.00	29.555 
03:20	36.9	36.9	36.9	72	28.7	3	10	248	0.00	29.555 
03:25	36.9	33.7	36.9	72	28.7	4	12	248	0.00	29.555 
03:30	36.8	36.8	36.8	72	28.6	3	9	248	0.00	29.553 
03:35	36.8	33.6	36.8	72	28.6	4	8	248	0.00	29.553 
03:40	36.8	33.6	36.8	72	28.6	4	12	248	0.00	29.553 
03:45	36.6	36.6	36.6	72	28.4	2	7	248	0.00	29.539 
03:50	36.6	36.6	36.6	73	28.8	2	10	248	0.00	29.539 
03:55	36.5	36.5	36.5	73	28.7	2	6	225	0.00	29.539 
04:00	36.5	33.3	36.5	73	28.7	4	12	248	0.00	29.540 
04:05	36.5	36.5	36.5	74	29.0	2	5	248	0.00	29.540 
04:10	36.3	36.3	36.3	74	28.8	3	10	248	0.00	29.540 
04:15	36.3	36.3	36.3	75	29.1	3	7	248	0.00	29.543 
04:20	36.2	36.2	36.2	75	29.1	2	10	248	0.00	29.543 
04:25	36.0	36.0	36.0	76	29.2	3	12	248	0.00	29.543 
04:30	36.0	36.0	36.0	76	29.2	3	9	248	0.00	29.552 
04:35	36.0	36.0	36.0	76	29.2	3	10	248	0.00	29.552 
04:40	36.0	36.0	36.0	76	29.2	3	9	270	0.00	29.552 
04:45	35.9	32.6	35.9	76	29.1	4	9	248	0.00	29.554 
04:50	35.9	35.9	35.9	76	29.1	3	10	248	0.00	29.554 
04:55	35.9	32.6	35.9	75	28.8	4	11	248	0.00	29.554 
05:00	35.9	35.9	35.9	75	28.8	3	11	248	0.00	29.558 
05:05	35.9	32.6	35.9	75	28.8	4	19	248	0.00	29.558 
05:10	35.9	32.6	35.9	74	28.4	4	11	248	0.00	29.558 
05:15	36.0	36.0	36.0	73	28.2	3	7	248	0.00	29.569 
05:20	36.0	36.0	36.0	73	28.2	2	9	270	0.00	29.569 
05:25	35.9	35.9	35.9	73	28.1	3	7	248	0.00	29.569 
05:30	35.9	35.9	35.9	73	28.1	2	7	248	0.00	29.574 
05:35	35.9	35.9	35.9	74	28.4	3	9	270	0.00	29.574 
05:40	35.9	35.9	35.9	74	28.4	3	6	248	0.00	29.574 
05:45	36.0	36.0	36.0	74	28.5	3	10	248	0.00	29.575 
05:50	36.0	32.7	36.0	74	28.5	4	10	248	0.00	29.575 
05:55	36.0	36.0	36.0	73	28.2	2	7	248	0.00	29.575 
06:00	35.9	35.9	35.9	73	28.1	2	5	248	0.00	29.580 
06:05	36.0	32.7	36.0	73	28.2	4	14	248	0.00	29.580 
06:10	36.0	36.0	36.0	73	28.2	3	9	248	0.00	29.580 
06:15	36.0	36.0	36.0	74	28.5	3	9	248	0.00	29.586 
06:20	35.9	35.9	35.9	74	28.4	2	9	248	0.00	29.586 
06:25	35.9	35.9	35.9	75	28.8	2	9	248	0.00	29.586 
06:30	35.9	35.9	35.9	75	28.8	3	10	248	0.00	29.585 
06:35	35.8	35.8	35.8	75	28.7	1	5	248	0.00	29.585 
06:40	35.8	35.8	35.8	75	28.7	2	7	248	0.00	29.585 
06:45	35.8	35.8	35.8	76	29.0	2	8	248	0.00	29.584 
06:50	35.8	35.8	35.8	75	28.7	3	9	248	0.00	29.584 
06:55	35.8	35.8	35.8	75	28.7	2	10	248	0.00	29.584 
07:00	35.8	35.8	35.8	75	28.7	3	10	248	0.00	29.578 
07:05	35.8	35.8	35.8	75	28.7	3	9	248	0.00	29.578 
07:10	35.8	35.8	35.8	74	28.3	3	10	248	0.00	29.578 
07:15	35.8	32.5	35.8	74	28.3	4	12	248	0.00	29.587 
07:20	35.8	35.8	35.8	75	28.7	2	7	248	0.00	29.587 
07:25	35.6	35.6	35.6	75	28.5	2	6	248	0.00	29.587 
07:30	35.5	35.5	35.5	74	28.0	3	10	248	0.00	29.582 
07:35	35.6	35.6	35.6	73	27.8	3	7	248	0.00	29.582 
07:40	35.8	35.8	35.8	73	28.0	2	9	248	0.00	29.582 
07:45	35.8	35.8	35.8	73	28.0	2	6	248	0.00	29.586 
07:50	35.8	35.8	35.8	72	27.7	2	7	248	0.00	29.586 
07:55	35.9	35.9	35.9	72	27.8	3	11	248	0.00	29.586 
08:00	35.9	35.9	35.9	72	27.8	2	7	248	0.00	29.591 
08:05	35.9	35.9	35.9	73	28.1	2	6	248	0.00	29.591 
08:10	35.9	35.9	35.9	73	28.1	2	7	248	0.00	29.591 
08:15	35.9	35.9	35.9	74	28.4	2	6	248	0.00	29.594 
08:20	35.8	35.8	35.8	74	28.3	3	9	248	0.00	29.594 
08:25	35.8	35.8	35.8	75	28.7	3	6	248	0.00	29.594 
08:30	35.6	35.6	35.6	76	28.8	3	7	248	0.00	29.603 
08:35	35.3	35.3	35.3	77	28.8	3	9	248	0.00	29.603 
08:40	35.2	31.8	35.2	77	28.7	4	10	248	0.00	29.603 
08:45	35.3	31.9	35.3	77	28.8	4	10	248	0.00	29.612 
08:50	35.3	31.9	35.3	76	28.5	4	11	248	0.00	29.612 
08:55	35.3	35.3	35.3	76	28.5	3	7	248	0.00	29.612 
09:00	35.3	35.3	35.3	76	28.5	3	9	248	0.00	29.619 
09:05	35.3	35.3	35.3	76	28.5	2	6	248	0.00	29.619 
09:10	35.3	35.3	35.3	76	28.5	3	9	248	0.00	29.619 
09:15	35.5	35.5	35.5	76	28.7	2	5	248	0.00	29.610 
09:20	35.3	31.9	35.3	75	28.2	4	11	248	0.00	29.610 
09:25	35.3	31.0	35.3	75	28.2	5	14	270	0.01	29.610 
09:30	35.3	35.3	35.3	75	28.2	3	7	248	0.00	29.614 
09:35	35.2	35.2	35.2	75	28.1	3	9	248	0.00	29.614 
09:40	35.0	35.0	35.0	74	27.6	3	10	248	0.00	29.614 
09:45	35.0	35.0	35.0	73	27.2	3	10	248	0.00	29.613 
09:50	35.0	31.5	35.0	72	26.9	4	11	248	0.00	29.613 
09:55	35.3	31.0	35.3	69	26.2	5	13	248	0.00	29.613 
10:00	35.5	35.5	35.5	69	26.4	3	10	248	0.00	29.613 
10:05	35.5	32.1	35.5	68	26.0	4	11	248	0.00	29.613 
10:10	35.3	31.0	35.3	68	25.8	5	12	248	0.00	29.613 
10:15	35.2	30.0	35.2	68	25.7	6	13	248	0.00	29.625 
10:20	35.0	31.5	35.0	69	25.9	4	13	248	0.00	29.625 
10:25	34.9	31.4	34.9	70	26.1	4	9	270	0.00	29.625 
10:30	34.9	31.4	34.9	71	26.5	4	12	270	0.00	29.631 
10:35	34.9	30.5	34.9	71	26.5	5	11	248	0.00	29.631 
10:40	34.9	31.4	34.9	72	26.8	4	11	248	0.00	29.631 
10:45	34.9	34.9	34.9	72	26.8	3	9	248	0.00	29.635 
10:50	34.6	34.6	34.6	72	26.5	3	9	248	0.00	29.635 
10:55	34.3	29.8	34.3	73	26.6	5	12	248	0.00	29.635 
11:00	34.1	29.5	34.1	73	26.4	5	12	248	0.00	29.639 
11:05	34.1	34.1	34.1	74	26.7	3	10	270	0.00	29.639 
11:10	34.0	28.6	34.0	72	25.9	6	14	248	0.00	29.639 
11:15	34.1	29.5	34.1	72	26.0	5	12	248	0.00	29.648 
11:20	34.1	30.5	34.1	71	25.7	4	14	248	0.00	29.648 
11:25	34.3	34.3	34.3	71	25.9	3	9	248	0.00	29.648 
11:30	34.3	30.7	34.3	70	25.5	4	13	270	0.00	29.654 
11:35	34.3	29.8	34.3	69	25.2	5	13	248	0.00	29.654 
11:40	34.4	29.9	34.4	67	24.6	5	12	248	0.00	29.654 
11:45	34.6	30.1	34.6	65	24.1	5	12	248	0.00	29.663 
11:50	34.6	31.1	34.6	65	24.1	4	11	248	0.00	29.663 
11:55	34.6	30.1	34.6	66	24.4	5	11	248	0.00	29.663 
12:00	34.3	29.8	34.3	66	24.1	5	11	248	0.00	29.667 
12:05	34.0	29.4	34.0	67	24.2	5	13	248	0.00	29.667 
12:10	33.7	30.0	33.7	68	24.3	4	14	248	0.00	29.667 
12:15	33.4	27.9	33.4	67	23.6	6	13	270	0.00	29.677 
12:20	33.4	28.7	33.4	68	24.0	5	12	248	0.00	29.677 
12:25	33.2	27.7	33.2	68	23.8	6	13	270	0.00	29.677 
12:30	33.4	29.7	33.4	69	24.3	4	11	248	0.00	29.674 
12:35	33.4	29.7	33.4	69	24.3	4	12	248	0.00	29.674 
12:40	33.5	33.5	33.5	70	24.8	3	10	248	0.00	29.674 
12:45	33.7	30.0	33.7	69	24.6	4	10	270	0.00	29.674 
12:50	33.8	30.2	33.8	66	23.7	4	11	248	0.00	29.674 
12:55	34.0	30.4	34.0	64	23.1	4	7	270	0.00	29.674 
13:00	34.4	30.8	34.4	64	23.5	4	11	248	0.00	29.674 
13:05	34.6	30.1	34.6	62	22.9	5	12	248	0.00	29.674 
13:10	34.3	28.3	34.3	63	23.0	7	15	270	0.00	29.674 
13:15	34.3	29.8	34.3	63	23.0	5	12	248	0.00	29.687 
13:20	34.3	29.8	34.3	65	23.8	5	17	248	0.00	29.687 
13:25	34.4	29.9	34.4	63	23.1	5	11	270	0.00	29.687 
13:30	34.4	29.9	34.4	63	23.1	5	11	248	0.00	29.688 
13:35	34.4	29.1	34.4	62	22.7	6	14	248	0.00	29.688 
13:40	34.7	30.2	34.7	62	23.0	5	12	248	0.00	29.688 
13:45	35.2	31.8	35.2	61	23.1	4	10	270	0.00	29.694 
13:50	34.9	28.4	34.9	58	21.6	8	16	270	0.00	29.694 
13:55	35.0	29.8	35.0	59	22.1	6	13	270	0.00	29.694 
14:00	35.3	28.9	35.3	59	22.4	8	16	248	0.00	29.701 
14:05	35.3	29.5	35.3	59	22.4	7	15	270	0.00	29.701 
14:10	35.3	30.2	35.3	60	22.8	6	15	248	0.00	29.701 
14:15	35.5	32.1	35.5	61	23.4	4	13	248	0.00	29.701 
14:20	36.0	32.7	36.0	60	23.5	4	11	248	0.00	29.701 
14:25	36.2	32.9	36.2	60	23.7	4	10	248	0.00	29.701 
14:30	36.3	32.1	36.3	58	23.0	5	13	248	0.00	29.701 
14:35	36.3	31.4	36.3	57	22.5	6	13	270	0.00	29.701 
14:40	36.5	33.3	36.5	59	23.6	4	11	248	0.00	29.701 
14:45	36.2	32.0	36.2	57	22.5	5	13	248	0.00	29.705 
14:50	35.9	31.7	35.9	58	22.6	5	13	248	0.00	29.705 
14:55	35.9	30.2	35.9	55	21.3	7	15	248	0.00	29.705 
15:00	35.8	30.8	35.8	55	21.2	6	15	248	0.00	29.717 
15:05	35.6	29.8	35.6	55	21.0	7	15	248	0.00	29.717 
15:10	35.8	30.8	35.8	56	21.7	6	14	270	0.00	29.717 
15:15	36.2	32.9	36.2	56	22.0	4	13	248	0.00	29.720 
15:20	36.5	33.3	36.5	55	21.9	4	11	248	0.00	29.720 
15:25	36.6	31.7	36.6	50	19.7	6	19	248	0.00	29.720 
15:30	36.5	30.9	36.5	50	19.6	7	15	248	0.00	29.726 
15:35	36.5	31.6	36.5	49	19.2	6	15	248	0.00	29.726 
15:40	36.5	32.4	36.5	50	19.6	5	13	248	0.00	29.726 
15:45	36.3	32.1	36.3	50	19.5	5	11	248	0.00	29.733 
15:50	36.3	31.4	36.3	50	19.5	6	17	248	0.00	29.733 
15:55	36.2	32.0	36.2	51	19.8	5	16	248	0.00	29.733 
16:00	36.2	31.2	36.2	46	17.4	6	15	248	0.00	29.747 
16:05	35.9	30.2	35.9	46	17.2	7	17	270	0.00	29.747 
16:10	35.9	31.7	35.9	47	17.7	5	14	270	0.00	29.747 
16:15	36.2	32.9	36.2	48	18.4	4	9	248	0.00	29.752 
16:20	36.5	33.3	36.5	48	18.7	4	10	248	0.00	29.752 
16:25	36.5	32.4	36.5	47	18.2	5	10	248	0.00	29.752 
16:30	36.6	33.4	36.6	47	18.3	4	10	248	0.00	29.762 
16:35	36.6	32.5	36.6	47	18.3	5	12	248	0.00	29.762 
16:40	36.6	32.5	36.6	46	17.8	5	12	248	0.00	29.762 
16:45	36.6	36.6	36.6	47	18.3	3	10	248	0.00	29.765 
16:50	36.8	36.8	36.8	46	18.0	3	10	270	0.00	29.765 
16:55	36.6	33.4	36.6	46	17.8	4	13	248	0.00	29.765 
17:00	36.6	33.4	36.6	47	18.3	4	9	248	0.00	29.776 
17:05	36.8	36.8	36.8	47	18.5	3	10	248	0.00	29.776 
17:10	36.8	36.8	36.8	46	18.0	3	14	248	0.00	29.776 
17:15	36.8	33.6	36.8	44	17.0	4	14	270	0.00	29.781 
17:20	36.8	32.7	36.8	43	16.4	5	15	248	0.00	29.781 
17:25	36.6	33.4	36.6	43	16.2	4	11	248	0.00	29.781 
17:30	36.6	36.6	36.6	45	17.3	3	9	248	0.00	29.783 
17:35	36.5	33.3	36.5	45	17.2	4	11	248	0.00	29.783 
17:40	36.3	36.3	36.3	45	17.0	3	9	248	0.00	29.783 
17:45	36.3	31.4	36.3	44	16.5	6	14	248	0.00	29.787 
17:50	36.2	32.0	36.2	42	15.3	5	12	248	0.00	29.787 
17:55	36.0	36.0	36.0	43	15.7	3	7	248	0.00	29.787 
18:00	35.9	35.9	35.9	44	16.1	3	9	248	0.00	29.791 
18:05	35.8	35.8	35.8	44	16.0	2	6	248	0.00	29.791 
18:10	35.6	32.2	35.6	44	15.9	4	11	248	0.00	29.791 
18:15	35.5	35.5	35.5	45	16.3	3	9	248	0.00	29.794 
18:20	35.3	35.3	35.3	46	16.6	2	7	248	0.00	29.794 
18:25	35.2	35.2	35.2	46	16.5	3	9	248	0.00	29.794 
18:30	35.2	35.2	35.2	47	17.0	2	5	248	0.00	29.808 
18:35	35.0	35.0	35.0	48	17.3	3	7	248	0.00	29.808 
18:40	35.2	31.8	35.2	47	17.0	4	15	248	0.00	29.808 
18:45	35.3	35.3	35.3	47	17.1	3	10	248	0.00	29.815 
18:50	35.3	35.3	35.3	48	17.6	3	9	248	0.00	29.815 
18:55	35.3	35.3	35.3	47	17.1	3	7	248	0.00	29.815 
19:00	35.3	35.3	35.3	48	17.6	2	6	248	0.00	29.822 
19:05	35.2	35.2	35.2	48	17.5	2	5	270	0.00	29.822 
19:10	35.0	35.0	35.0	48	17.3	2	9	248	0.00	29.822 
19:15	35.2	35.2	35.2	49	18.0	2	7	248	0.00	29.830 
19:20	35.2	35.2	35.2	49	18.0	2	7	248	0.00	29.830 
19:25	35.2	35.2	35.2	50	18.4	3	11	248	0.00	29.830 
19:30	35.2	35.2	35.2	50	18.4	1	5	248	0.00	29.839 
19:35	35.0	35.0	35.0	50	18.3	1	5	248	0.00	29.839 
19:40	35.0	35.0	35.0	50	18.3	1	5	248	0.00	29.839 
19:45	34.9	34.9	34.9	51	18.6	1	4	248	0.00	29.842 
19:50	34.7	34.7	34.7	51	18.4	1	4	248	0.00	29.842 
19:55	34.6	34.6	34.6	52	18.8	0	2	248	0.00	29.842 
20:00	34.3	34.3	34.3	53	19.0	0	2	248	0.00	29.843 
20:05	34.1	34.1	34.1	54	19.2	0	2	248	0.00	29.843 
20:10	34.0	34.0	34.0	56	20.0	1	3	248	0.00	29.843 
20:15	33.8	33.8	33.8	58	20.6	0	2	248	0.00	29.844 
20:20	33.7	33.7	33.7	59	20.9	0	3	248	0.00	29.844 
20:25	33.5	33.5	33.5	60	21.1	0	2	248	0.00	29.844 
20:30	33.4	33.4	33.4	62	21.8	1	3	248	0.00	29.845 
20:35	33.4	33.4	33.4	62	21.8	1	4	248	0.00	29.845 
20:40	33.5	33.5	33.5	63	22.3	1	4	248	0.00	29.845 
20:45	33.5	33.5	33.5	64	22.6	1	3	248	0.00	29.847 
20:50	33.5	33.5	33.5	64	22.6	1	3	248	0.00	29.847 
20:55	33.5	33.5	33.5	65	23.0	1	5	248	0.00	29.847 
21:00	33.7	33.7	33.7	65	23.2	1	4	248	0.00	29.853 
21:05	33.8	33.8	33.8	65	23.3	1	5	248	0.00	29.853 
21:10	34.0	34.0	34.0	65	23.5	1	4	248	0.00	29.853 
21:15	34.1	34.1	34.1	65	23.6	1	3	248	0.00	29.859 
21:20	34.3	34.3	34.3	65	23.8	1	4	248	0.00	29.859 
21:25	34.7	34.7	34.7	64	23.8	2	7	248	0.00	29.859 
21:30	35.2	35.2	35.2	63	23.9	1	3	248	0.00	29.861 
21:35	35.5	35.5	35.5	62	23.8	1	6	248	0.00	29.861 
21:40	35.8	35.8	35.8	62	24.1	2	6	248	0.00	29.861 
21:45	36.0	36.0	36.0	61	23.9	2	10	248	0.00	29.858 
21:50	36.2	36.2	36.2	60	23.7	1	4	248	0.00	29.858 
21:55	36.5	36.5	36.5	58	23.1	2	5	248	0.00	29.858 
22:00	36.5	36.5	36.5	58	23.1	1	6	248	0.00	29.861 
22:05	36.5	36.5	36.5	58	23.1	1	4	248	0.00	29.861 
22:10	36.5	36.5	36.5	58	23.1	0	3	248	0.00	29.861 
22:15	36.3	36.3	36.3	58	23.0	1	4	248	0.00	29.861 
22:20	36.3	36.3	36.3	58	23.0	1	5	225	0.00	29.861 
22:25	36.2	36.2	36.2	59	23.3	0	2	225	0.00	29.861 
22:30	36.2	36.2	36.2	59	23.3	1	5	225	0.00	29.858 
22:35	36.3	36.3	36.3	59	23.4	0	1	248	0.00	29.858 
22:40	36.2	36.2	36.2	59	23.3	0	3	248	0.00	29.858 
22:45	36.2	36.2	36.2	60	23.7	0	2	248	0.00	29.860 
22:50	36.0	36.0	36.0	60	23.5	0	2	248	0.00	29.860 
22:55	36.0	36.0	36.0	61	23.9	1	4	248	0.00	29.860 
23:00	35.9	35.9	35.9	61	23.8	1	3	248	0.00	29.862 
23:05	35.9	35.9	35.9	62	24.2	0	3	248	0.00	29.862 
23:10	35.8	35.8	35.8	62	24.1	1	5	248	0.00	29.862 
23:15	36.0	36.0	36.0	62	24.3	3	7	248	0.00	29.862 
23:20	36.5	36.5	36.5	62	24.7	2	6	248	0.00	29.862 
23:25	36.8	36.8	36.8	61	24.6	1	4	248	0.00	29.862 
23:30	36.9	36.9	36.9	60	24.3	1	4	248	0.00	29.861 
23:35	37.0	37.0	37.0	59	24.0	1	3	248	0.00	29.861 
23:40	37.2	37.2	37.2	58	23.8	1	3	248	0.00	29.861 
23:45	37.2	37.2	37.2	58	23.8	0	2	248	0.00	29.862 
23:50	37.2	37.2	37.2	58	23.8	0	2	248	0.00	29.862 
23:55	37.0	37.0	37.0	58	23.6	1	3	248	0.00	29.862 

CoCoRaHS
IN-AL-39
A2 Web Hosting
Creative Commons License
GoDaddy
search engine by freefind advanced

loaded 2018-11-15 04:14:25 • last modified 2010-11-18 10:43:29
Privacy PolicyDisclaimer
• wx.awcolley.com is powered by PmWiki v.2002016 •
• all content (unless otherwise noted) © 2018 A W Colley